SBFL/FLN METAR and TAF weather

Enter ICAO airport designator
Station Type Date Time Source
SBFL METAR 2019/02/16 18:00 UTC NOAA

SBFL 161800Z 17006KT 9999 SCT020 BKN060 25/22 Q1012


Station Type Date Time Source
SBFL Decoded METAR 2019/02/16 18:00 UTC NOAA

Florianopolis Aeroporto , Brazil (SBFL) 27-40S 048-33W 5M
Feb 16, 2019 - 01:00 PM EST / 2019.02.16 1800 UTC
Wind: from the S (170 degrees) at 7 MPH (6 KT):0
Visibility: greater than 7 mile(s):0
Sky conditions: mostly cloudy
Temperature: 77 F (25 C)
Dew Point: 71 F (22 C)
Relative Humidity: 83%
Pressure (altimeter): 29.88 in. Hg (1012 hPa)
ob: SBFL 161800Z 17006KT 9999 SCT020 BKN060 25/22 Q1012
cycle: 18

Station Type Date Time Source
SBFL TAF 2019/02/16 18:56 UTC NOAA

TAF SBFL 161430Z 1618/1718 16008KT 9999 SCT030 TN19/1708Z TX27/1716Z
TEMPO 1618/1620 8000 SHRA BKN030 FEW035TCU PROB40 1706/1710 BKN020
BECMG 1 712/1714 BKN030
RMK PDJ


Example: see airport list